Saint Catherine, Egypt
Current Conditions -  °F | °C
As of 8:00 AM on Thursday 27 Nov 2014 (Local Time) from HESH Reporting Station
Few Clouds Few Clouds  
Wind Chill: 21°   Ceiling: Unl
Heat Index: 21°   Visibility: 6mi
Dew Point:   Wind: 7mph
Humidity: 43%   Direction: 350°N
Pressure: 30.06"   Gusts: NA
Location:  28.56°N, 33.98°E
Report Text: HESH 270600Z 35006KT 9999 FEW020 21/08 Q1018 NOSIG
Loading
Personal Weather Stations






























Interactive Weather Map New forecast layout! Learn more

10-Day Weather Forecast

Advertisements
Track Severe Weather on mobile